Latest Weather Observations for Spitfire Channel

IDQ60801

Issued at 9:32 am EST Thursday 3 September 2015 (issued every 30 minutes, with the page automatically refreshed every 10 minutes)

About weather observations | Map of weather stations | Latest weather observations for QLD | Other Formats
Station Details ID: 040927 Name: SPITFIRE CHANNEL BEACON Lat: -27.05 Lon: 153.27 Height: 7.0 m
Data from the previous 72 hours. | See also: Recent months for locations in Queensland
Date/Time
EST
Temp
°C
App
Temp
°C
Dew
Point
Rel
Hum
%
Delta-T
°C
Wind Press
QNH
hPa
Press
MSL
hPa
Rain
since 9 am
mm
Dir
 
Spd
km/h
Gust
km/h
Spd
kts
Gust
kts
03/09:30am - - - - - NNW 32 37 17 20 - - -
03/09:00am - - - - - NNW 39 44 21 24 - - -
03/08:30am - - - - - NNW 33 41 18 22 - - -
03/08:00am - - - - - NW 37 43 20 23 - - -
03/07:30am - - - - - NNW 37 46 20 25 - - -
03/07:00am - - - - - NNW 41 50 22 27 - - -
03/06:30am - - - - - NNW 44 54 24 29 - - -
03/06:00am - - - - - NNW 37 44 20 24 - - -
03/05:30am - - - - - NNW 37 46 20 25 - - -
03/05:00am - - - - - NNW 39 46 21 25 - - -
03/04:30am - - - - - NNW 41 48 22 26 - - -
03/04:00am - - - - - N 39 44 21 24 - - -
03/03:30am - - - - - NNW 35 41 19 22 - - -
03/03:00am - - - - - NNW 32 37 17 20 - - -
03/02:30am - - - - - NW 24 32 13 17 - - -
03/02:00am - - - - - NNW 26 33 14 18 - - -
03/01:30am - - - - - NNW 35 43 19 23 - - -
03/01:00am - - - - - NNW 37 43 20 23 - - -
03/12:30am - - - - - NNW 32 37 17 20 - - -
03/12:00am - - - - - NW 33 41 18 22 - - -
 
Date/Time
EST
Temp
°C
App
Temp
°C
Dew
Point
Rel
Hum
%
Delta-T
°C
Wind Press
QNH
hPa
Press
MSL
hPa
Rain
since 9 am
mm
Dir
 
Spd
km/h
Gust
km/h
Spd
kts
Gust
kts
02/11:30pm - - - - - NW 30 39 16 21 - - -
02/11:00pm - - - - - NW 30 35 16 19 - - -
02/10:30pm - - - - - NNW 30 35 16 19 - - -
02/10:00pm - - - - - NNW 30 33 16 18 - - -
02/09:30pm - - - - - NNW 30 37 16 20 - - -
02/09:00pm - - - - - NNW 32 39 17 21 - - -
02/08:30pm - - - - - NNW 30 35 16 19 - - -
02/08:00pm - - - - - N 26 30 14 16 - - -
02/07:30pm - - - - - N 24 30 13 16 - - -
02/07:00pm - - - - - N 26 28 14 15 - - -
02/06:30pm - - - - - N 24 28 13 15 - - -
02/06:00pm - - - - - N 17 20 9 11 - - -
02/05:30pm - - - - - NNE 19 22 10 12 - - -
02/05:00pm - - - - - NNE 24 28 13 15 - - -
02/04:30pm - - - - - NNE 22 28 12 15 - - -
02/04:00pm - - - - - NNE 24 30 13 16 - - -
02/03:30pm - - - - - NNE 26 28 14 15 - - -
02/03:00pm - - - - - NNE 22 26 12 14 - - -
02/02:30pm - - - - - NE 20 24 11 13 - - -
02/02:00pm - - - - - NE 17 17 9 9 - - -
02/01:30pm - - - - - NE 11 15 6 8 - - -
02/01:00pm - - - - - NE 11 13 6 7 - - -
02/12:30pm - - - - - NE 7 11 4 6 - - -
02/12:00pm - - - - - ENE 6 9 3 5 - - -
02/11:30am - - - - - ENE 6 7 3 4 - - -
02/11:00am - - - - - CALM 0 4 0 2 - - -
02/10:30am - - - - - CALM 0 0 0 0 - - -
02/10:00am - - - - - CALM 0 2 0 1 - - -
02/09:30am - - - - - SSW 4 7 2 4 - - -
02/09:00am - - - - - SSW 9 11 5 6 - - -
02/08:30am - - - - - S 9 11 5 6 - - -
02/08:00am - - - - - SSW 9 11 5 6 - - -
02/07:30am - - - - - SSW 11 13 6 7 - - -
02/07:00am - - - - - WSW 13 13 7 7 - - -
02/06:30am - - - - - W 13 13 7 7 - - -
02/06:00am - - - - - W 9 13 5 7 - - -
02/05:30am - - - - - WSW 7 9 4 5 - - -
02/05:00am - - - - - SW 13 15 7 8 - - -
02/04:30am - - - - - SW 9 13 5 7 - - -
02/04:00am - - - - - SW 9 11 5 6 - - -
02/03:30am - - - - - SSW 9 9 5 5 - - -
02/03:00am - - - - - SW 11 11 6 6 - - -
02/02:30am - - - - - SW 11 13 6 7 - - -
02/02:00am - - - - - WSW 11 15 6 8 - - -
02/01:30am - - - - - SW 13 15 7 8 - - -
02/01:00am - - - - - W 15 17 8 9 - - -
02/12:30am - - - - - WNW 17 20 9 11 - - -
02/12:00am - - - - - WNW 17 19 9 10 - - -
 
Date/Time
EST
Temp
°C
App
Temp
°C
Dew
Point
Rel
Hum
%
Delta-T
°C
Wind Press
QNH
hPa
Press
MSL
hPa
Rain
since 9 am
mm
Dir
 
Spd
km/h
Gust
km/h
Spd
kts
Gust
kts
01/11:30pm - - - - - WNW 17 19 9 10 - - -
01/11:00pm - - - - - WNW 19 22 10 12 - - -
01/10:30pm - - - - - NW 22 26 12 14 - - -
01/10:00pm - - - - - NW 22 26 12 14 - - -
01/09:30pm - - - - - NW 24 28 13 15 - - -
01/09:00pm - - - - - NW 20 24 11 13 - - -
01/08:30pm - - - - - NW 20 22 11 12 - - -
01/08:00pm - - - - - NW 20 24 11 13 - - -
01/07:30pm - - - - - NW 20 24 11 13 - - -
01/07:00pm - - - - - NNW 20 24 11 13 - - -
01/06:30pm - - - - - NNW 20 22 11 12 - - -
01/06:00pm - - - - - N 17 19 9 10 - - -
01/05:30pm - - - - - NNW 19 20 10 11 - - -
01/05:00pm - - - - - N 17 19 9 10 - - -
01/04:30pm - - - - - N 17 19 9 10 - - -
01/04:00pm - - - - - N 19 20 10 11 - - -
01/03:30pm - - - - - N 17 20 9 11 - - -
01/03:00pm - - - - - NNE 11 15 6 8 - - -
01/02:30pm - - - - - NNE 11 13 6 7 - - -
01/02:00pm - - - - - N 6 9 3 5 - - -
01/01:30pm - - - - - ENE 4 6 2 3 - - -
01/01:00pm - - - - - ENE 4 6 2 3 - - -
01/12:30pm - - - - - S 4 6 2 3 - - -
01/12:00pm - - - - - SSW 11 13 6 7 - - -
01/11:30am - - - - - SSW 11 15 6 8 - - -
01/11:00am - - - - - SSW 13 17 7 9 - - -
01/10:30am - - - - - SW 15 19 8 10 - - -
01/10:00am - - - - - SSW 22 26 12 14 - - -
01/09:30am - - - - - SW 22 26 12 14 - - -
01/09:00am - - - - - WSW 22 26 12 14 - - -
01/08:30am - - - - - WSW 26 32 14 17 - - -
01/08:00am - - - - - WSW 24 28 13 15 - - -
01/07:30am - - - - - WSW 20 24 11 13 - - -
01/07:00am - - - - - WSW 20 24 11 13 - - -
01/06:30am - - - - - WSW 20 24 11 13 - - -
01/06:00am - - - - - WSW 20 24 11 13 - - -
01/05:30am - - - - - WSW 17 20 9 11 - - -
01/05:00am - - - - - WSW 13 19 7 10 - - -
01/04:30am - - - - - W 11 15 6 8 - - -
01/04:00am - - - - - W 13 17 7 9 - - -
01/03:30am - - - - - W 15 19 8 10 - - -
01/03:00am - - - - - W 11 15 6 8 - - -
01/02:30am - - - - - WSW 13 19 7 10 - - -
01/02:00am - - - - - SW 17 28 9 15 - - -
01/01:30am - - - - - WSW 13 17 7 9 - - -
01/01:00am - - - - - WSW 15 17 8 9 - - -
01/12:30am - - - - - WSW 17 22 9 12 - - -
01/12:00am - - - - - SSW 30 37 16 20 - - -
 
Date/Time
EST
Temp
°C
App
Temp
°C
Dew
Point
Rel
Hum
%
Delta-T
°C
Wind Press
QNH
hPa
Press
MSL
hPa
Rain
since 9 am
mm
Dir
 
Spd
km/h
Gust
km/h
Spd
kts
Gust
kts
31/11:30pm - - - - - SSW 30 39 16 21 - - -
31/11:00pm - - - - - SSW 28 33 15 18 - - -
31/10:30pm - - - - - SW 22 28 12 15 - - -
31/10:00pm - - - - - WSW 17 20 9 11 - - -
31/09:30pm - - - - - W 15 17 8 9 - - -
31/09:00pm - - - - - WNW 17 20 9 11 - - -
31/08:30pm - - - - - NW 15 19 8 10 - - -
31/08:00pm - - - - - NW 15 17 8 9 - - -
31/07:30pm - - - - - NNW 11 13 6 7 - - -
31/07:00pm - - - - - N 9 13 5 7 - - -
31/06:30pm - - - - - N 13 15 7 8 - - -
31/06:00pm - - - - - NE 13 15 7 8 - - -
31/05:30pm - - - - - NE 15 19 8 10 - - -
31/05:00pm - - - - - NE 17 19 9 10 - - -
31/04:30pm - - - - - ENE 13 15 7 8 - - -
31/04:00pm - - - - - ENE 9 11 5 6 - - -
31/03:30pm - - - - - E 9 11 5 6 - - -
31/03:00pm - - - - - E 9 9 5 5 - - -
31/02:30pm - - - - - E 9 11 5 6 - - -
31/02:00pm - - - - - E 9 11 5 6 - - -
31/01:30pm - - - - - ESE 13 13 7 7 - - -
31/01:00pm - - - - - ESE 13 17 7 9 - - -
31/12:30pm - - - - - SE 11 13 6 7 - - -
31/12:00pm - - - - - SE 11 13 6 7 - - -
31/11:30am - - - - - SSE 13 19 7 10 - - -
31/11:00am - - - - - S 13 15 7 8 - - -
31/10:30am - - - - - S 20 24 11 13 - - -
31/10:00am - - - - - SSW 15 19 8 10 - - -

Other Formats:

Comma delimited format used in spreadsheet applications
http://www.bom.gov.au/fwo/IDQ60801/IDQ60801.94581.axf

JavaScript Object Notation format (JSON) in row-major order
http://www.bom.gov.au/fwo/IDQ60801/IDQ60801.94581.json